createdAt,value
2022-10-22T00:01:20.137Z,79.27
2022-10-22T00:03:47.955Z,79.50
2022-10-22T00:06:15.682Z,79.38
2022-10-22T00:08:43.406Z,79.59
2022-10-22T00:11:16.786Z,79.61
2022-10-22T00:13:44.541Z,79.57
2022-10-22T00:16:12.765Z,79.59
2022-10-22T00:18:40.857Z,79.51
2022-10-22T00:21:08.656Z,79.46
2022-10-22T00:23:36.521Z,79.67
2022-10-22T00:26:04.406Z,79.46
2022-10-22T00:28:32.050Z,79.32
2022-10-22T00:31:01.457Z,79.36
2022-10-22T00:33:29.701Z,79.54
2022-10-22T00:35:57.381Z,79.41
2022-10-22T00:38:25.240Z,79.36
2022-10-22T00:40:53.216Z,79.19
2022-10-22T00:43:21.272Z,79.00
2022-10-22T00:45:49.430Z,78.87
2022-10-22T00:48:30.076Z,78.78
2022-10-22T00:51:08.215Z,78.74
2022-10-22T00:53:41.706Z,78.76
2022-10-22T00:56:10.470Z,79.01
2022-10-22T00:58:45.492Z,78.79
2022-10-22T01:01:36.629Z,78.56
2022-10-22T01:04:06.078Z,78.62
2022-10-22T01:06:34.457Z,78.72
2022-10-22T01:09:35.861Z,78.76
2022-10-22T01:12:21.772Z,78.77
2022-10-22T01:15:20.721Z,78.68
2022-10-22T01:18:01.317Z,78.71
2022-10-22T01:20:51.455Z,78.59
2022-10-22T01:24:07.831Z,78.56
2022-10-22T01:26:50.826Z,78.31
2022-10-22T01:29:57.001Z,78.34
2022-10-22T01:32:29.808Z,78.27
2022-10-22T01:35:12.507Z,78.58
2022-10-22T01:37:48.344Z,78.47
2022-10-22T01:40:20.971Z,78.51
2022-10-22T01:43:08.358Z,78.48
2022-10-22T01:45:40.020Z,78.51
2022-10-22T01:48:10.550Z,78.37
2022-10-22T01:51:04.935Z,78.53
2022-10-22T01:53:50.167Z,78.60
2022-10-22T01:56:36.511Z,78.49
2022-10-22T01:59:10.580Z,78.48
2022-10-22T02:01:54.162Z,78.54
2022-10-22T02:04:21.974Z,78.67
2022-10-22T02:06:53.319Z,78.92
2022-10-22T02:09:26.330Z,78.79
2022-10-22T02:11:56.395Z,78.60
2022-10-22T02:14:27.992Z,78.73
2022-10-22T02:16:57.939Z,78.86
2022-10-22T02:19:46.905Z,78.91
2022-10-22T02:22:14.922Z,78.93
2022-10-22T02:24:42.879Z,78.65
2022-10-22T02:27:36.227Z,78.93
2022-10-22T02:30:11.558Z,78.83
2022-10-22T02:32:50.543Z,78.94
2022-10-22T02:35:22.102Z,78.97
2022-10-22T02:37:51.224Z,79.12
2022-10-22T02:40:19.463Z,79.20
2022-10-22T02:42:49.768Z,79.23
2022-10-22T02:45:21.673Z,79.10
2022-10-22T02:47:51.055Z,79.23
2022-10-22T02:50:20.362Z,79.46
2022-10-22T02:52:47.959Z,79.60
2022-10-22T02:55:15.945Z,79.95
2022-10-22T02:57:43.805Z,79.91
2022-10-22T03:00:12.466Z,80.07
2022-10-22T03:02:40.537Z,80.02
2022-10-22T03:05:08.937Z,80.16
2022-10-22T03:07:36.590Z,79.99
2022-10-22T03:10:05.564Z,80.05
2022-10-22T03:12:33.459Z,80.17
2022-10-22T03:15:01.132Z,80.26
2022-10-22T03:17:32.461Z,80.09
2022-10-22T03:20:00.241Z,80.13
2022-10-22T03:22:32.533Z,80.09
2022-10-22T03:25:04.372Z,80.25
2022-10-22T03:27:32.229Z,80.25
2022-10-22T03:29:59.869Z,80.07
2022-10-22T03:32:27.765Z,80.08
2022-10-22T03:34:55.851Z,79.89
2022-10-22T03:37:26.741Z,79.90
2022-10-22T03:39:55.464Z,79.91
2022-10-22T03:42:24.190Z,79.84
2022-10-22T03:44:52.700Z,79.90
2022-10-22T03:47:20.394Z,79.88
2022-10-22T03:49:48.171Z,79.88
2022-10-22T03:52:17.155Z,79.83
2022-10-22T03:54:45.027Z,79.63
2022-10-22T03:57:13.272Z,79.90
2022-10-22T03:59:43.354Z,79.81
2022-10-22T04:02:12.671Z,79.95
2022-10-22T04:04:40.413Z,79.91
2022-10-22T04:07:09.029Z,80.01
2022-10-22T04:09:37.000Z,79.90
2022-10-22T04:12:07.899Z,79.95
2022-10-22T04:14:35.745Z,79.92
2022-10-22T04:17:03.574Z,80.32
2022-10-22T04:19:31.347Z,80.09
2022-10-22T04:21:59.926Z,80.22
2022-10-22T04:24:31.273Z,80.46
2022-10-22T04:26:59.440Z,80.60
2022-10-22T04:29:27.751Z,80.58
2022-10-22T04:31:55.959Z,80.52
2022-10-22T04:34:27.411Z,80.75
2022-10-22T04:36:55.930Z,80.59
2022-10-22T04:39:23.983Z,80.49
2022-10-22T04:41:51.759Z,80.31
2022-10-22T04:44:19.788Z,80.28
2022-10-22T04:46:47.670Z,80.28
2022-10-22T04:49:15.601Z,80.49
2022-10-22T04:51:43.250Z,80.59
2022-10-22T04:54:11.084Z,80.54
2022-10-22T04:56:39.082Z,80.72
2022-10-22T04:59:09.256Z,80.59
2022-10-22T05:01:42.803Z,80.54
2022-10-22T05:04:14.247Z,80.79
2022-10-22T05:06:42.721Z,80.75
2022-10-22T05:09:16.908Z,80.93
2022-10-22T05:11:48.743Z,80.97
2022-10-22T05:14:24.984Z,81.09
2022-10-22T05:16:53.668Z,80.94
2022-10-22T05:19:27.706Z,81.18
2022-10-22T05:21:58.625Z,81.35
2022-10-22T05:24:27.449Z,81.36
2022-10-22T05:26:57.359Z,81.43
2022-10-22T05:29:26.037Z,81.49
2022-10-22T05:31:54.310Z,81.22
2022-10-22T05:34:22.150Z,81.68
2022-10-22T05:36:50.107Z,81.43
2022-10-22T05:39:17.750Z,81.42
2022-10-22T05:41:45.513Z,81.39
2022-10-22T05:44:13.940Z,81.47
2022-10-22T05:46:43.426Z,81.55
2022-10-22T05:49:14.621Z,81.47
2022-10-22T05:51:42.821Z,81.71
2022-10-22T05:54:20.054Z,81.76
2022-10-22T05:56:49.195Z,81.59
2022-10-22T05:59:16.870Z,81.53
2022-10-22T06:01:44.538Z,81.23
2022-10-22T06:04:13.208Z,81.15
2022-10-22T06:06:42.703Z,81.04
2022-10-22T06:09:33.810Z,81.07
2022-10-22T06:12:02.122Z,80.69
2022-10-22T06:14:32.231Z,80.45
2022-10-22T06:17:00.652Z,80.44
2022-10-22T06:19:32.566Z,80.28
2022-10-22T06:22:00.481Z,80.18
2022-10-22T06:24:28.293Z,80.14
2022-10-22T06:26:56.555Z,80.03
2022-10-22T06:29:24.158Z,80.02
2022-10-22T06:31:52.134Z,80.00
2022-10-22T06:34:20.136Z,80.03
2022-10-22T06:36:48.137Z,79.87
2022-10-22T06:39:17.900Z,79.89
2022-10-22T06:41:45.883Z,79.78
2022-10-22T06:44:19.426Z,79.80
2022-10-22T06:46:53.542Z,79.71
2022-10-22T06:49:21.698Z,79.71
2022-10-22T06:51:51.420Z,79.65
2022-10-22T06:54:20.681Z,79.59
2022-10-22T06:56:50.414Z,79.56
2022-10-22T06:59:18.509Z,79.46
2022-10-22T07:01:46.321Z,79.53
2022-10-22T07:04:14.252Z,79.25
2022-10-22T07:06:42.512Z,79.21
2022-10-22T07:09:10.214Z,79.24
2022-10-22T07:11:43.992Z,79.15
2022-10-22T07:14:12.907Z,79.21
2022-10-22T07:16:43.110Z,79.02
2022-10-22T07:19:10.978Z,78.99
2022-10-22T07:21:39.259Z,78.97
2022-10-22T07:24:07.664Z,78.85
2022-10-22T07:26:35.461Z,78.65
2022-10-22T07:29:06.146Z,78.55
2022-10-22T07:31:34.035Z,78.31
2022-10-22T07:34:02.081Z,78.33
2022-10-22T07:36:30.158Z,78.35
2022-10-22T07:38:59.514Z,78.29
2022-10-22T07:41:29.579Z,78.15
2022-10-22T07:43:58.245Z,78.10
2022-10-22T07:46:26.601Z,78.04
2022-10-22T07:48:54.511Z,77.84
2022-10-22T07:51:22.720Z,77.82
2022-10-22T07:53:50.808Z,77.83
2022-10-22T07:56:18.637Z,77.76
2022-10-22T07:58:47.156Z,77.85
2022-10-22T08:01:15.318Z,77.76
2022-10-22T08:03:43.018Z,77.58
2022-10-22T08:06:14.933Z,77.58
2022-10-22T08:08:45.822Z,77.67
2022-10-22T08:11:16.359Z,77.58
2022-10-22T08:13:45.550Z,77.55
2022-10-22T08:16:14.415Z,77.55
2022-10-22T08:18:42.471Z,77.44
2022-10-22T08:21:11.668Z,77.45
2022-10-22T08:23:39.304Z,77.62
2022-10-22T08:26:07.697Z,77.48
2022-10-22T08:28:37.192Z,77.57
2022-10-22T08:31:07.847Z,77.77
2022-10-22T08:33:36.640Z,77.71
2022-10-22T08:36:05.120Z,77.57
2022-10-22T08:38:33.046Z,77.53
2022-10-22T08:41:10.496Z,77.64
2022-10-22T08:43:50.681Z,77.66
2022-10-22T08:46:55.773Z,77.78
2022-10-22T08:49:27.536Z,77.87
2022-10-22T08:51:58.246Z,77.90
2022-10-22T08:54:50.807Z,77.78
2022-10-22T08:57:27.874Z,77.65
2022-10-22T09:00:05.752Z,77.63
2022-10-22T09:02:46.395Z,77.43
2022-10-22T09:05:23.324Z,77.40
2022-10-22T09:07:53.083Z,77.23
2022-10-22T09:10:27.557Z,76.85
2022-10-22T09:12:55.542Z,76.82
2022-10-22T09:15:23.743Z,76.88
2022-10-22T09:18:14.669Z,76.99
2022-10-22T09:21:00.293Z,76.97
2022-10-22T09:23:37.286Z,76.84
2022-10-22T09:26:13.459Z,76.77
2022-10-22T09:28:41.968Z,76.58
2022-10-22T09:31:14.858Z,76.70
2022-10-22T09:33:44.887Z,76.26
2022-10-22T09:36:18.430Z,76.46
2022-10-22T09:38:51.899Z,76.67
2022-10-22T09:41:23.495Z,76.65
2022-10-22T09:43:52.037Z,76.70
2022-10-22T09:46:24.061Z,76.82
2022-10-22T09:49:01.442Z,76.76
2022-10-22T09:51:56.380Z,76.76
2022-10-22T09:54:37.189Z,76.96
2022-10-22T09:57:14.184Z,77.14
2022-10-22T09:59:43.244Z,77.14
2022-10-22T10:02:44.009Z,77.15
2022-10-22T10:05:21.178Z,77.38
2022-10-22T10:07:49.057Z,77.35
2022-10-22T10:10:27.140Z,77.30
2022-10-22T10:13:21.116Z,77.44
2022-10-22T10:16:12.412Z,77.52
2022-10-22T10:19:02.217Z,77.60
2022-10-22T10:21:54.815Z,77.63
2022-10-22T10:24:44.756Z,77.58
2022-10-22T10:27:26.128Z,77.78
2022-10-22T10:30:06.426Z,77.72
2022-10-22T10:33:11.506Z,77.69
2022-10-22T10:36:02.243Z,78.01
2022-10-22T10:39:05.159Z,78.21
2022-10-22T10:42:01.941Z,78.93
2022-10-22T10:44:52.924Z,79.44
2022-10-22T10:47:51.960Z,79.62
2022-10-22T10:50:52.516Z,79.92
2022-10-22T10:53:36.790Z,80.33
2022-10-22T10:56:07.568Z,80.37
2022-10-22T10:58:47.915Z,80.51
2022-10-22T11:01:28.276Z,80.96
2022-10-22T11:04:02.211Z,81.09
2022-10-22T11:06:37.350Z,81.19
2022-10-22T11:09:52.900Z,81.17
2022-10-22T11:12:39.688Z,80.77
2022-10-22T11:15:40.084Z,80.66
2022-10-22T11:18:17.968Z,80.81
2022-10-22T11:21:13.305Z,80.64
2022-10-22T11:23:53.820Z,80.58
2022-10-22T11:26:56.860Z,80.37
2022-10-22T11:29:32.840Z,79.90
2022-10-22T11:32:03.171Z,79.65
2022-10-22T11:34:44.517Z,78.60
2022-10-22T11:37:14.399Z,78.10
2022-10-22T11:40:13.267Z,78.15
2022-10-22T11:42:52.303Z,77.71
2022-10-22T11:45:28.768Z,77.34
2022-10-22T11:47:56.724Z,77.20
2022-10-22T11:50:43.621Z,77.26
2022-10-22T11:53:14.379Z,76.18
2022-10-22T11:55:48.204Z,76.54
2022-10-22T11:58:28.722Z,76.41
2022-10-22T12:01:12.650Z,76.70
2022-10-22T12:03:44.028Z,76.73
2022-10-22T12:06:15.809Z,77.16
2022-10-22T12:08:49.638Z,77.11
2022-10-22T12:11:20.139Z,77.24
2022-10-22T12:14:28.083Z,77.48
2022-10-22T12:16:58.093Z,76.75
2022-10-22T12:19:46.701Z,76.74
2022-10-22T12:22:27.282Z,77.14
2022-10-22T12:25:01.077Z,77.31
2022-10-22T12:27:40.566Z,76.83
2022-10-22T12:30:22.787Z,77.09
2022-10-22T12:32:56.716Z,77.47
2022-10-22T12:35:27.428Z,77.93
2022-10-22T12:38:12.944Z,78.31
2022-10-22T12:40:45.883Z,78.73
2022-10-22T12:43:19.154Z,79.36
2022-10-22T12:45:49.884Z,79.86
2022-10-22T12:48:22.453Z,80.53
2022-10-22T12:50:54.036Z,80.83
2022-10-22T12:53:30.937Z,80.95
2022-10-22T12:56:05.875Z,81.36
2022-10-22T12:59:02.081Z,81.71
2022-10-22T13:01:37.701Z,82.16
2022-10-22T13:04:22.903Z,82.61
2022-10-22T13:07:12.390Z,83.57
2022-10-22T13:09:42.789Z,86.32
2022-10-22T13:12:16.321Z,87.20
2022-10-22T13:14:46.620Z,88.01
2022-10-22T13:17:19.272Z,89.27
2022-10-22T13:19:53.905Z,90.40
2022-10-22T13:22:52.436Z,90.95
2022-10-22T13:25:26.198Z,92.09
2022-10-22T13:28:01.012Z,92.00
2022-10-22T13:30:32.128Z,92.53
2022-10-22T13:33:02.462Z,93.60
2022-10-22T13:35:33.933Z,93.71
2022-10-22T13:38:02.101Z,93.97
2022-10-22T13:40:32.257Z,93.88
2022-10-22T13:42:59.950Z,95.07
2022-10-22T13:45:27.569Z,94.48
2022-10-22T13:47:55.453Z,94.70
2022-10-22T13:50:23.535Z,94.72
2022-10-22T13:52:54.393Z,94.55
2022-10-22T13:55:25.691Z,94.71
2022-10-22T14:00:59.407Z,94.83
2022-10-22T14:03:32.985Z,94.74
2022-10-22T14:06:01.440Z,95.05
2022-10-22T14:08:29.398Z,95.46
2022-10-22T14:10:57.213Z,95.47
2022-10-22T14:13:25.028Z,95.38
2022-10-22T14:15:53.052Z,94.86
2022-10-22T14:18:28.932Z,95.17
2022-10-22T14:21:00.195Z,94.82
2022-10-22T14:23:30.344Z,95.10
2022-10-22T14:25:59.425Z,94.84
2022-10-22T14:28:27.969Z,94.83
2022-10-22T14:30:55.908Z,94.48
2022-10-22T14:33:30.544Z,94.99
2022-10-22T14:36:01.133Z,94.82
2022-10-22T14:38:29.756Z,94.81
2022-10-22T14:40:59.771Z,94.43
2022-10-22T14:43:30.020Z,95.03
2022-10-22T14:45:58.337Z,94.88
2022-10-22T14:48:26.000Z,94.50
2022-10-22T14:50:55.297Z,94.52
2022-10-22T14:53:23.223Z,94.71
2022-10-22T14:55:52.184Z,94.68
2022-10-22T14:58:19.983Z,94.60
2022-10-22T15:00:47.708Z,94.91
2022-10-22T15:03:15.486Z,94.97
2022-10-22T15:05:45.055Z,94.42
2022-10-22T15:08:14.739Z,94.70
2022-10-22T15:10:42.541Z,94.66
2022-10-22T15:13:10.214Z,94.84
2022-10-22T15:15:41.246Z,94.66
2022-10-22T15:18:08.929Z,94.40
2022-10-22T15:20:36.643Z,94.28
2022-10-22T15:23:04.590Z,94.42
2022-10-22T15:25:32.451Z,94.25
2022-10-22T15:28:07.444Z,94.22
2022-10-22T15:30:37.125Z,93.97
2022-10-22T15:33:05.409Z,93.98
2022-10-22T15:35:33.172Z,93.86
2022-10-22T15:38:00.953Z,93.86
2022-10-22T15:40:28.778Z,93.94
2022-10-22T15:42:58.632Z,93.89
2022-10-22T15:45:26.406Z,93.98
2022-10-22T15:47:54.005Z,93.92
2022-10-22T15:50:21.929Z,94.03
2022-10-22T15:52:50.329Z,93.88
2022-10-22T15:55:19.099Z,93.75
2022-10-22T15:57:46.920Z,93.85
2022-10-22T16:00:15.095Z,93.70
2022-10-22T16:02:43.691Z,93.83
2022-10-22T16:05:11.354Z,93.70
2022-10-22T16:07:39.281Z,93.54
2022-10-22T16:10:07.943Z,93.61
2022-10-22T16:12:36.139Z,93.90
2022-10-22T16:15:04.264Z,94.34
2022-10-22T16:17:32.155Z,95.59
2022-10-22T16:20:00.936Z,96.10
2022-10-22T16:22:28.817Z,96.55
2022-10-22T16:24:58.170Z,96.91
2022-10-22T16:27:26.135Z,96.81
2022-10-22T16:29:54.131Z,96.86
2022-10-22T16:32:22.142Z,96.86
2022-10-22T16:34:49.748Z,97.04
2022-10-22T16:37:17.468Z,96.99
2022-10-22T16:39:46.099Z,97.01
2022-10-22T16:42:13.738Z,97.25
2022-10-22T16:44:41.379Z,97.28
2022-10-22T16:47:09.095Z,97.09
2022-10-22T16:49:36.694Z,96.99
2022-10-22T16:52:04.712Z,97.08
2022-10-22T16:54:32.418Z,96.86
2022-10-22T16:57:00.079Z,96.87
2022-10-22T16:59:28.110Z,96.84
2022-10-22T17:01:56.212Z,96.64
2022-10-22T17:04:23.908Z,96.57
2022-10-22T17:06:51.874Z,96.50
2022-10-22T17:09:19.684Z,96.45
2022-10-22T17:11:47.464Z,96.42
2022-10-22T17:14:15.295Z,96.30
2022-10-22T17:16:43.492Z,96.24
2022-10-22T17:19:14.221Z,96.38
2022-10-22T17:21:42.692Z,96.28
2022-10-22T17:24:10.715Z,96.25
2022-10-22T17:26:38.401Z,96.29
2022-10-22T17:29:06.474Z,96.18
2022-10-22T17:31:39.289Z,96.30
2022-10-22T17:34:14.761Z,96.15
2022-10-22T17:36:43.341Z,96.12
2022-10-22T17:39:15.629Z,96.13
2022-10-22T17:41:43.248Z,96.24
2022-10-22T17:44:12.459Z,96.11
2022-10-22T17:46:40.007Z,95.98
2022-10-22T17:49:20.398Z,96.22
2022-10-22T17:51:48.428Z,95.79
2022-10-22T17:54:16.177Z,95.79
2022-10-22T17:56:44.281Z,95.62
2022-10-22T17:59:14.411Z,95.58
2022-10-22T18:01:45.833Z,95.49
2022-10-22T18:04:16.607Z,95.34
2022-10-22T18:06:46.921Z,95.27
2022-10-22T18:09:18.597Z,95.13
2022-10-22T18:11:48.989Z,95.08
2022-10-22T18:14:18.541Z,94.95
2022-10-22T18:16:49.985Z,94.80
2022-10-22T18:19:23.258Z,94.82
2022-10-22T18:21:51.253Z,94.77
2022-10-22T18:24:19.244Z,94.59
2022-10-22T18:26:46.952Z,94.57
2022-10-22T18:29:18.141Z,94.42
2022-10-22T18:31:47.049Z,94.33
2022-10-22T18:34:17.639Z,94.29
2022-10-22T18:36:48.170Z,94.16
2022-10-22T18:39:16.149Z,93.95
2022-10-22T18:41:43.861Z,93.93
2022-10-22T18:44:14.272Z,93.94
2022-10-22T18:46:41.971Z,93.74
2022-10-22T18:49:15.847Z,93.67
2022-10-22T18:51:44.258Z,93.65
2022-10-22T18:54:22.517Z,93.55
2022-10-22T18:56:52.628Z,93.38
2022-10-22T18:59:24.592Z,93.36
2022-10-22T19:01:54.024Z,93.25
2022-10-22T19:04:21.838Z,93.36
2022-10-22T19:06:49.523Z,93.33
2022-10-22T19:09:17.702Z,93.23
2022-10-22T19:11:45.899Z,93.34
2022-10-22T19:14:15.041Z,93.18
2022-10-22T19:16:42.898Z,93.16
2022-10-22T19:19:11.711Z,93.15
2022-10-22T19:21:39.381Z,93.19
2022-10-22T19:24:07.419Z,93.09
2022-10-22T19:26:35.126Z,93.12
2022-10-22T19:29:03.565Z,92.91
2022-10-22T19:31:32.102Z,92.87
2022-10-22T19:34:01.483Z,92.97
2022-10-22T19:36:31.788Z,92.70
2022-10-22T19:39:00.520Z,92.68
2022-10-22T19:41:29.436Z,92.57
2022-10-22T19:43:58.367Z,92.58
2022-10-22T19:46:29.826Z,92.54
2022-10-22T19:48:57.600Z,92.56
2022-10-22T19:51:27.864Z,92.70
2022-10-22T19:54:00.392Z,92.56
2022-10-22T19:56:28.310Z,92.64
2022-10-22T19:58:56.172Z,92.57
2022-10-22T20:01:24.686Z,92.61
2022-10-22T20:03:53.253Z,92.61
2022-10-22T20:06:21.966Z,92.49
2022-10-22T20:08:52.376Z,92.43
2022-10-22T20:11:26.864Z,92.51
2022-10-22T20:13:55.149Z,92.35
2022-10-22T20:16:26.004Z,92.28
2022-10-22T20:18:53.966Z,92.26
2022-10-22T20:21:21.994Z,92.13
2022-10-22T20:23:53.127Z,92.10
2022-10-22T20:26:23.881Z,91.85
2022-10-22T20:28:52.054Z,91.86
2022-10-22T20:31:22.732Z,91.71
2022-10-22T20:33:51.218Z,91.70
2022-10-22T20:36:21.849Z,91.38
2022-10-22T20:38:50.870Z,91.30
2022-10-22T20:41:21.689Z,91.34
2022-10-22T20:43:51.912Z,91.18
2022-10-22T20:46:32.047Z,91.14
2022-10-22T20:49:10.111Z,91.05
2022-10-22T20:51:38.438Z,90.93
2022-10-22T20:54:08.024Z,90.74
2022-10-22T20:56:37.997Z,90.68
2022-10-22T20:59:08.275Z,90.86
2022-10-22T21:01:40.249Z,90.74
2022-10-22T21:04:08.343Z,90.83
2022-10-22T21:06:40.456Z,90.79
2022-10-22T21:09:09.792Z,90.73
2022-10-22T21:11:39.126Z,90.74
2022-10-22T21:14:07.545Z,90.73
2022-10-22T21:16:35.699Z,90.78
2022-10-22T21:19:03.659Z,90.71
2022-10-22T21:21:31.609Z,90.61
2022-10-22T21:23:59.259Z,90.51
2022-10-22T21:26:27.152Z,90.39
2022-10-22T21:28:54.951Z,90.34
2022-10-22T21:31:26.138Z,90.36
2022-10-22T21:33:54.044Z,90.25
2022-10-22T21:36:23.632Z,90.07
2022-10-22T21:38:52.651Z,90.13
2022-10-22T21:41:22.693Z,90.09
2022-10-22T21:43:51.034Z,90.04
2022-10-22T21:46:24.122Z,89.92
2022-10-22T21:49:02.191Z,89.82
2022-10-22T21:51:32.980Z,89.61
2022-10-22T21:54:01.048Z,89.66
2022-10-22T21:56:32.734Z,89.58
2022-10-22T21:59:01.860Z,89.42
2022-10-22T22:01:29.581Z,89.38
2022-10-22T22:03:57.465Z,89.43
2022-10-22T22:06:29.550Z,89.47
2022-10-22T22:08:59.098Z,89.39
2022-10-22T22:11:28.029Z,89.45
2022-10-22T22:13:56.843Z,89.42
2022-10-22T22:16:30.531Z,89.29
2022-10-22T22:19:00.182Z,89.44
2022-10-22T22:21:28.694Z,89.38
2022-10-22T22:23:57.899Z,89.42
2022-10-22T22:26:29.664Z,89.45
2022-10-22T22:29:00.117Z,89.56
2022-10-22T22:31:33.078Z,89.61
2022-10-22T22:34:12.870Z,89.61
2022-10-22T22:36:43.473Z,89.78
2022-10-22T22:39:17.477Z,89.75
2022-10-22T22:41:46.785Z,89.73
2022-10-22T22:44:14.834Z,89.73
2022-10-22T22:46:43.204Z,89.68
2022-10-22T22:49:12.540Z,89.71
2022-10-22T22:51:41.121Z,89.83
2022-10-22T22:54:09.803Z,90.09
2022-10-22T22:56:38.312Z,90.14
2022-10-22T22:59:06.559Z,90.07
2022-10-22T23:01:37.044Z,90.04
2022-10-22T23:04:07.727Z,90.05
2022-10-22T23:06:37.959Z,89.93
2022-10-22T23:09:08.579Z,90.23
2022-10-22T23:11:37.161Z,90.17
2022-10-22T23:14:06.783Z,90.10
2022-10-22T23:16:37.145Z,90.07
2022-10-22T23:19:05.860Z,90.02
2022-10-22T23:21:40.447Z,90.10
2022-10-22T23:24:11.204Z,90.06
2022-10-22T23:26:46.803Z,89.95
2022-10-22T23:29:20.602Z,90.00
2022-10-22T23:31:49.674Z,89.95
2022-10-22T23:34:22.799Z,90.15
2022-10-22T23:36:51.556Z,90.28
2022-10-22T23:39:22.502Z,90.23
2022-10-22T23:41:51.572Z,90.18
2022-10-22T23:44:22.018Z,90.18
2022-10-22T23:46:51.298Z,90.15
2022-10-22T23:49:20.049Z,90.32
2022-10-22T23:51:48.098Z,90.50
2022-10-22T23:54:17.842Z,90.65
2022-10-22T23:56:45.881Z,90.52
